CheckWX is a tool to help pilots better visualize weather data.  It is not intended as a substitute for an official pre-flight weather briefing.

14:54:49 UTC

KNXF METAR
MCOLF Camp Pendleton (Red Beach) Airport
Oceanside, California, USA
Current

14 hours ago

KNXF 110056Z AUTO 32004KT 10SM CLR 14/11 A3018 RMK AO2 SLP307 T01390111
Observed
Dec-11 @ 00:56 UTC
Wind
  • 320° at 4 KTS
Visibility
10 SM
Flight Rules
VFR
Cloud Levels
  • Clear skies
Temperature
14°C / 57°F
Dewpoint
11°C / 52°F
Humidity
82%
Altimeter
30.18" Hg
Pressure
1022.02 hPa
Previous

15 hours ago

KNXF 102356Z AUTO 29005KT 10SM CLR 16/11 A3018 RMK AO2 SLP307 T01560111 10172 20150 55007
Observed
Dec-10 @ 23:56 UTC
Wind
  • 290° at 5 KTS
Visibility
10 SM
Flight Rules
VFR
Cloud Levels
  • Clear skies
Temperature
16°C / 61°F
Dewpoint
11°C / 52°F
Humidity
72%
Altimeter
30.18" Hg
Pressure
1022.02 hPa
Previous

16 hours ago

KNXF 102256Z AUTO 26006KT 10SM CLR 16/11 A3018 RMK AO2 SLP307 T01560111
Observed
Dec-10 @ 22:56 UTC
Wind
  • 260° at 6 KTS
Visibility
10 SM
Flight Rules
VFR
Cloud Levels
  • Clear skies
Temperature
16°C / 61°F
Dewpoint
11°C / 52°F
Humidity
72%
Altimeter
30.18" Hg
Pressure
1022.02 hPa